Time;durP1;ratioP1;P1;durP2;ratioP2;P2;SDS_P1;SDS_P2;PMS_P1;PMS_P2;Temp;Humidity;BMP_temperature;BMP_pressure;BME280_temperature;BME280_humidity;BME280_pressure;Samples;Min_cycle;Max_cycle;Signal;HPM_P1;HPM_P2
2023/08/12 00:01:54;;;;;;;6.80;4.00;;;;;;;13.48;74.10;101330.66;105848;1261;98542;-83
2023/08/12 00:04:40;;;;;;;8.00;3.20;;;;;;;13.40;73.94;101333.83;105792;1263;102834;-83
2023/08/12 00:07:26;;;;;;;8.20;4.00;;;;;;;13.33;74.05;101333.45;105865;1259;100373;-83
2023/08/12 00:10:12;;;;;;;6.40;3.30;;;;;;;13.29;74.31;101334.84;105716;1265;98036;-84
2023/08/12 00:12:59;;;;;;;3.40;2.70;;;;;;;13.26;74.34;101332.70;105903;1260;98444;-85
2023/08/12 00:15:44;;;;;;;3.80;2.80;;;;;;;13.25;74.51;101333.83;105942;1260;97885;-85
2023/08/12 00:18:36;;;;;;;5.60;3.60;;;;;;;13.21;74.20;101333.53;105891;1265;102337;-84
2023/08/12 00:21:22;;;;;;;4.30;3.30;;;;;;;13.14;73.85;101334.05;105927;1261;99152;-84
2023/08/12 00:24:08;;;;;;;7.20;4.80;;;;;;;13.06;74.19;101333.48;105866;1263;98993;-84
2023/08/12 00:26:53;;;;;;;8.10;5.00;;;;;;;13.01;74.79;101330.50;105960;1266;97983;-85
2023/08/12 00:29:39;;;;;;;10.70;4.30;;;;;;;12.97;74.78;101329.93;106014;1259;98447;-85
2023/08/12 00:32:25;;;;;;;6.60;4.60;;;;;;;12.92;74.72;101331.97;105910;1266;101530;-84
2023/08/12 00:35:11;;;;;;;5.40;4.40;;;;;;;12.87;74.92;101330.69;105729;1259;99195;-84
2023/08/12 00:37:57;;;;;;;6.20;4.00;;;;;;;12.85;75.40;101330.94;105770;1266;98369;-84
2023/08/12 00:40:43;;;;;;;8.40;3.30;;;;;;;12.82;75.30;101331.41;106032;1260;99262;-84
2023/08/12 00:43:30;;;;;;;6.10;3.00;;;;;;;12.78;75.49;101328.89;105865;1260;98521;-84
2023/08/12 00:46:15;;;;;;;4.50;2.90;;;;;;;12.75;75.65;101331.23;105892;1262;101432;-85
2023/08/12 00:49:01;;;;;;;7.60;3.50;;;;;;;12.72;75.87;101328.35;106071;1260;99105;-84
2023/08/12 00:51:49;;;;;;;4.30;3.10;;;;;;;12.70;75.57;101328.64;105943;1268;97972;-84
2023/08/12 00:54:35;;;;;;;5.80;3.10;;;;;;;12.64;74.94;101333.26;105924;1264;97999;-84
2023/08/12 00:57:20;;;;;;;7.50;3.60;;;;;;;12.58;75.14;101340.68;105802;1260;98484;-84
2023/08/12 01:00:08;;;;;;;9.20;3.50;;;;;;;12.51;75.18;101342.17;105979;1261;103010;-83
2023/08/12 01:02:56;;;;;;;4.50;3.40;;;;;;;12.46;75.18;101341.11;106107;1262;100771;-84
2023/08/12 01:05:41;;;;;;;5.80;3.60;;;;;;;12.40;75.26;101342.37;106186;1265;99127;-83
2023/08/12 01:08:31;;;;;;;5.60;3.90;;;;;;;12.35;75.46;101338.09;105846;1263;98582;-84
2023/08/12 01:11:34;;;;;;;6.50;4.20;;;;;;;12.34;75.69;101338.21;105886;1260;97980;-83
2023/08/12 01:14:27;;;;;;;7.20;4.00;;;;;;;12.34;75.91;101337.78;105868;1265;101499;-83
2023/08/12 01:17:15;;;;;;;7.60;4.60;;;;;;;12.33;75.79;101336.83;105965;1261;100437;-83
2023/08/12 01:20:49;;;;;;;6.80;4.30;;;;;;;12.30;76.07;101335.31;105666;1266;97973;-82
2023/08/12 01:23:15;;;;;;;9.00;4.70;;;;;;;12.25;76.33;101333.91;105649;1266;97957;-84
2023/08/12 01:26:01;;;;;;;7.30;4.60;;;;;;;12.23;76.53;101337.52;105931;1265;97948;-84
2023/08/12 01:28:46;;;;;;;9.00;4.90;;;;;;;12.21;76.48;101339.60;105848;1266;102448;-84
2023/08/12 01:31:46;;;;;;;7.90;4.60;;;;;;;12.20;76.51;101342.10;106013;1265;99192;-82
2023/08/12 01:34:43;;;;;;;8.00;3.80;;;;;;;12.18;76.66;101344.29;106085;1261;99328;-84
2023/08/12 01:37:31;;;;;;;7.80;3.90;;;;;;;12.19;76.61;101342.06;106126;1266;97951;-84
2023/08/12 01:40:20;;;;;;;5.40;4.00;;;;;;;12.21;76.87;101344.66;105747;1266;97853;-84
2023/08/12 01:43:07;;;;;;;9.60;4.40;;;;;;;12.23;76.99;101339.41;105926;1265;102741;-83
2023/08/12 01:45:52;;;;;;;6.80;3.90;;;;;;;12.23;76.86;101339.75;105897;1263;99191;-84
2023/08/12 01:48:38;;;;;;;6.60;4.00;;;;;;;12.22;76.86;101335.55;105858;1265;99259;-82
2023/08/12 01:51:24;;;;;;;8.70;4.60;;;;;;;12.22;76.98;101332.54;105771;1267;98066;-83
2023/08/12 01:54:09;;;;;;;7.00;4.50;;;;;;;12.21;76.98;101329.96;105867;1266;97910;-83
2023/08/12 01:56:55;;;;;;;6.90;4.90;;;;;;;12.19;77.00;101330.92;106029;1266;103292;-85
2023/08/12 01:59:46;;;;;;;5.60;4.10;;;;;;;12.13;76.90;101328.91;105793;1265;100399;-84
2023/08/12 02:02:31;;;;;;;8.30;4.50;;;;;;;12.08;77.04;101322.56;105818;1266;99759;-84
2023/08/12 02:05:17;;;;;;;10.80;4.10;;;;;;;12.05;77.42;101322.14;105672;1266;99429;-84
2023/08/12 02:08:04;;;;;;;6.10;4.40;;;;;;;12.05;77.67;101319.21;105858;1265;97949;-84
2023/08/12 02:10:50;;;;;;;6.10;3.70;;;;;;;12.02;77.47;101325.84;105667;1267;102832;-83
2023/08/12 02:13:36;;;;;;;6.80;4.20;;;;;;;11.98;77.40;101329.78;105778;1273;100001;-83
2023/08/12 02:16:22;;;;;;;5.90;3.80;;;;;;;11.95;77.44;101330.72;105693;1260;98028;-85
2023/08/12 02:19:07;;;;;;;8.50;3.70;;;;;;;11.91;77.23;101329.61;105845;1266;97868;-84
2023/08/12 02:21:53;;;;;;;4.90;3.70;;;;;;;11.87;77.27;101328.48;105892;1266;98223;-83
2023/08/12 02:24:39;;;;;;;6.50;3.80;;;;;;;11.82;77.20;101330.80;105987;1265;102444;-84
2023/08/12 02:27:24;;;;;;;6.70;3.50;;;;;;;11.76;76.96;101328.29;105793;1266;100351;-84
2023/08/12 02:30:11;;;;;;;5.60;4.10;;;;;;;11.72;77.30;101326.80;105812;1276;98547;-83
2023/08/12 02:32:57;;;;;;;11.30;4.70;;;;;;;11.68;77.32;101324.44;106034;1264;97908;-84
2023/08/12 02:35:43;;;;;;;6.30;3.70;;;;;;;11.65;77.19;101325.73;105849;1266;97878;-84
2023/08/12 02:38:29;;;;;;;3.60;2.80;;;;;;;11.62;77.38;101327.77;105888;1268;102106;-83
2023/08/12 02:41:15;;;;;;;7.40;3.20;;;;;;;11.56;77.33;101327.32;106099;1263;99869;-84
2023/08/12 02:44:01;;;;;;;5.20;2.70;;;;;;;11.52;77.41;101328.02;105755;1261;98436;-84
2023/08/12 02:46:46;;;;;;;3.70;2.80;;;;;;;11.50;77.33;101331.51;105642;1275;98076;-85
2023/08/12 02:49:32;;;;;;;5.60;3.20;;;;;;;11.49;77.61;101338.60;105761;1260;98015;-83
2023/08/12 02:52:18;;;;;;;6.50;3.20;;;;;;;11.47;77.70;101339.85;105739;1264;102076;-83
2023/08/12 02:55:03;;;;;;;4.20;3.30;;;;;;;11.44;77.52;101340.27;105783;1264;99242;-83
2023/08/12 02:57:49;;;;;;;3.90;3.50;;;;;;;11.38;77.51;101341.27;105899;1264;98479;-84
2023/08/12 03:00:35;;;;;;;3.60;3.00;;;;;;;11.34;77.75;101336.85;105782;1261;97891;-84
2023/08/12 03:03:21;;;;;;;5.60;3.50;;;;;;;11.31;77.31;101335.79;105836;1267;98146;-85
2023/08/12 03:06:06;;;;;;;4.70;3.30;;;;;;;11.27;77.22;101335.42;105614;1267;101358;-84
2023/08/12 03:08:52;;;;;;;3.60;3.10;;;;;;;11.23;77.54;101338.36;105743;1266;100451;-84
2023/08/12 03:11:38;;;;;;;5.60;3.40;;;;;;;11.22;77.82;101339.94;105863;1260;99348;-84
2023/08/12 03:14:28;;;;;;;5.40;3.30;;;;;;;11.22;77.96;101337.73;105782;1270;97955;-83
2023/08/12 03:17:17;;;;;;;5.80;3.30;;;;;;;11.21;77.93;101343.63;107996;1264;95743;-85
2023/08/12 03:20:04;;;;;;;3.70;2.80;;;;;;;11.17;77.96;101343.74;105786;1261;103051;-84
2023/08/12 03:22:51;;;;;;;4.00;3.30;;;;;;;11.12;77.91;101343.70;105811;1261;99304;-81
2023/08/12 03:25:36;;;;;;;3.80;3.00;;;;;;;11.10;77.94;101340.08;105756;1266;99146;-83
2023/08/12 03:28:22;;;;;;;5.10;3.00;;;;;;;11.10;78.04;101341.66;105623;1269;97872;-83
2023/08/12 03:31:09;;;;;;;7.10;3.30;;;;;;;11.08;78.01;101339.55;105932;1264;98496;-83
2023/08/12 03:33:54;;;;;;;5.40;3.60;;;;;;;11.05;78.16;101342.38;105978;1260;101432;-83
2023/08/12 03:36:40;;;;;;;4.90;3.60;;;;;;;11.04;78.41;101341.73;106009;1264;99144;-83
2023/08/12 03:39:26;;;;;;;8.00;3.70;;;;;;;11.04;78.35;101339.84;105748;1263;97965;-83
2023/08/12 03:42:12;;;;;;;3.90;3.40;;;;;;;11.04;78.52;101343.42;106027;1260;98098;-84
2023/08/12 03:44:59;;;;;;;5.00;3.80;;;;;;;11.02;78.57;101340.46;105786;1265;98052;-83
2023/08/12 03:47:44;;;;;;;7.10;3.10;;;;;;;11.01;78.53;101346.61;105893;1263;101394;-85
2023/08/12 03:50:34;;;;;;;5.00;3.50;;;;;;;11.02;78.75;101344.89;105856;1264;108319;-83
2023/08/12 03:53:20;;;;;;;5.50;3.90;;;;;;;11.03;79.02;101349.05;105623;1270;107691;-85
2023/08/12 03:56:06;;;;;;;7.30;5.10;;;;;;;11.04;79.28;101348.88;105755;1260;98082;-85
2023/08/12 03:58:52;;;;;;;5.90;4.50;;;;;;;11.06;79.60;101349.48;105954;1260;97946;-85
2023/08/12 04:01:38;;;;;;;7.80;4.20;;;;;;;11.06;79.50;101349.61;105892;1262;101420;-85
2023/08/12 04:04:24;;;;;;;5.90;3.80;;;;;;;11.07;79.89;101349.01;105829;1261;100512;-85
2023/08/12 04:07:10;;;;;;;5.00;3.90;;;;;;;11.09;80.20;101350.34;105858;1261;99121;-84
2023/08/12 04:09:56;;;;;;;7.60;4.00;;;;;;;11.12;80.22;101350.38;105734;1269;97921;-84
2023/08/12 04:12:42;;;;;;;5.70;3.90;;;;;;;11.13;80.51;101349.13;105942;1263;98501;-84
2023/08/12 04:15:27;;;;;;;6.70;4.50;;;;;;;11.17;80.89;101347.73;105921;1261;101420;-84
2023/08/12 04:18:14;;;;;;;9.00;4.70;;;;;;;11.22;81.15;101348.30;105956;1267;99181;-83
2023/08/12 04:21:00;;;;;;;7.30;5.10;;;;;;;11.27;81.33;101344.31;105723;1261;97900;-85
2023/08/12 04:23:45;;;;;;;10.80;4.80;;;;;;;11.32;81.73;101340.38;105783;1265;98051;-83
2023/08/12 04:26:31;;;;;;;10.50;6.20;;;;;;;11.37;81.76;101339.35;105890;1259;98495;-84
2023/08/12 04:29:17;;;;;;;7.70;5.70;;;;;;;11.45;82.24;101339.08;105846;1260;101456;-86
2023/08/12 04:32:04;;;;;;;15.10;5.60;;;;;;;11.52;82.68;101339.61;105770;1260;99365;-83
2023/08/12 04:34:49;;;;;;;9.00;5.10;;;;;;;11.60;82.85;101338.67;105759;1276;98576;-84
2023/08/12 04:37:37;;;;;;;9.10;4.80;;;;;;;11.70;82.81;101342.24;105827;1260;97974;-84
2023/08/12 04:40:23;;;;;;;9.30;5.70;;;;;;;11.80;83.05;101339.54;105864;1261;98072;-84
2023/08/12 04:43:10;;;;;;;9.90;4.50;;;;;;;11.88;83.85;101340.50;105872;1264;102467;-84
2023/08/12 04:45:56;;;;;;;6.50;4.30;;;;;;;11.97;84.40;101342.02;106071;1260;99358;-84
2023/08/12 04:48:41;;;;;;;5.70;4.10;;;;;;;12.04;84.72;101344.67;105846;1260;98239;-84
2023/08/12 04:51:27;;;;;;;6.50;4.20;;;;;;;12.11;85.24;101342.75;105858;1261;97723;-86
2023/08/12 04:54:13;;;;;;;6.70;4.40;;;;;;;12.20;85.69;101344.73;105678;1260;98068;-84
2023/08/12 04:57:00;;;;;;;7.90;5.10;;;;;;;12.30;86.57;101340.57;106046;1260;101442;-83
2023/08/12 04:59:45;;;;;;;6.80;4.50;;;;;;;12.39;86.58;101339.62;106329;1267;100442;-85
2023/08/12 05:02:32;;;;;;;7.60;4.60;;;;;;;12.48;87.48;101344.52;106244;1260;99108;-84
2023/08/12 05:05:18;;;;;;;5.60;4.50;;;;;;;12.56;88.19;101348.22;106368;1260;98020;-85
2023/08/12 05:08:04;;;;;;;9.50;5.70;;;;;;;12.64;88.33;101347.94;106209;1267;97916;-85
2023/08/12 05:10:50;;;;;;;7.50;5.50;;;;;;;12.74;88.77;101351.58;106422;1260;101457;-84
2023/08/12 05:13:36;;;;;;;6.70;4.90;;;;;;;12.85;89.25;101348.84;106370;1258;99300;-85
2023/08/12 05:16:22;;;;;;;8.30;5.20;;;;;;;12.95;89.31;101348.17;106155;1264;97969;-83
2023/08/12 05:19:08;;;;;;;7.10;5.00;;;;;;;13.05;89.43;101346.17;106035;1260;98015;-85
2023/08/12 05:21:54;;;;;;;7.80;4.80;;;;;;;13.17;89.73;101347.63;105961;1261;99649;-86
2023/08/12 05:24:42;;;;;;;7.80;5.10;;;;;;;13.28;90.71;101344.81;106036;1261;102615;-85
2023/08/12 05:27:28;;;;;;;9.20;4.90;;;;;;;13.40;91.29;101344.52;105881;1264;99363;-85
2023/08/12 05:30:17;;;;;;;11.50;5.80;;;;;;;13.51;91.36;101347.26;106011;1262;97980;-85
2023/08/12 05:33:03;;;;;;;11.20;4.80;;;;;;;13.62;91.00;101347.27;105810;1267;99594;-87
2023/08/12 05:35:50;;;;;;;9.10;5.40;;;;;;;13.78;91.04;101344.33;105983;1261;97954;-87
2023/08/12 05:38:36;;;;;;;8.90;5.20;;;;;;;13.98;91.49;101342.36;106097;1264;102017;-86
2023/08/12 05:41:22;;;;;;;11.50;7.10;;;;;;;14.17;91.44;101341.90;105991;1261;100415;-87
2023/08/12 05:44:07;;;;;;;6.60;5.40;;;;;;;14.36;91.29;101342.58;105926;1265;99083;-84
2023/08/12 05:46:53;;;;;;;12.30;7.60;;;;;;;14.55;91.63;101339.84;105924;1260;97967;-85
2023/08/12 05:49:39;;;;;;;15.50;8.20;;;;;;;14.75;91.12;101336.60;106039;1260;98489;-84
2023/08/12 05:52:25;;;;;;;13.90;8.00;;;;;;;14.91;90.42;101330.65;106213;1259;101459;-85
2023/08/12 05:55:11;;;;;;;12.20;7.40;;;;;;;15.08;89.79;101331.31;106125;1260;99279;-84
2023/08/12 05:57:56;;;;;;;13.60;6.90;;;;;;;15.25;89.45;101329.77;105949;1260;99105;-85
2023/08/12 06:00:45;;;;;;;10.00;7.10;;;;;;;15.43;88.89;101327.25;106081;1260;97970;-87
2023/08/12 06:03:31;;;;;;;10.90;7.00;;;;;;;15.60;89.00;101330.27;106136;1264;98132;-86
2023/08/12 06:06:16;;;;;;;17.90;7.10;;;;;;;15.75;88.79;101330.26;106086;1260;101432;-85
2023/08/12 06:09:03;;;;;;;12.60;8.10;;;;;;;15.88;88.46;101332.96;106092;1259;99244;-86
2023/08/12 06:11:49;;;;;;;16.80;8.00;;;;;;;16.00;87.82;101331.99;106047;1264;97962;-85
2023/08/12 06:14:38;;;;;;;13.70;7.20;;;;;;;16.14;87.79;101334.23;105971;1261;97973;-85
2023/08/12 06:17:23;;;;;;;16.10;7.30;;;;;;;16.28;87.27;101332.59;105910;1260;98419;-85
2023/08/12 06:20:09;;;;;;;8.10;5.70;;;;;;;16.40;86.54;101334.42;105989;1265;101452;-86
2023/08/12 06:22:55;;;;;;;12.60;7.30;;;;;;;16.54;85.80;101333.95;106063;1260;109051;-85
2023/08/12 06:25:42;;;;;;;12.70;5.70;;;;;;;16.65;85.28;101334.22;105988;1259;98560;-86
2023/08/12 06:28:28;;;;;;;13.50;5.60;;;;;;;16.78;84.46;101337.09;106085;1260;98089;-86
2023/08/12 06:31:14;;;;;;;9.30;5.60;;;;;;;16.92;82.23;101333.71;106031;1260;98419;-85
2023/08/12 06:34:00;;;;;;;12.50;6.60;;;;;;;17.05;80.91;101333.77;106062;1260;102756;-87
2023/08/12 06:36:46;;;;;;;7.50;5.00;;;;;;;17.18;80.36;101337.37;106219;1259;99175;-87
2023/08/12 06:39:32;;;;;;;11.00;4.60;;;;;;;17.30;79.33;101336.00;106235;1259;97802;-85
2023/08/12 06:42:18;;;;;;;8.20;4.50;;;;;;;17.41;78.51;101332.21;106028;1260;97935;-86
2023/08/12 06:45:05;;;;;;;13.70;5.20;;;;;;;17.53;78.71;101336.05;105953;1259;97885;-83
2023/08/12 06:47:51;;;;;;;6.80;4.70;;;;;;;17.63;78.61;101333.50;106024;1263;101456;-87
2023/08/12 06:50:36;;;;;;;8.30;4.50;;;;;;;17.72;77.87;101331.12;106035;1264;99892;-86
2023/08/12 06:53:22;;;;;;;7.10;4.30;;;;;;;17.82;77.40;101328.82;106112;1260;98002;-86
2023/08/12 06:56:09;;;;;;;10.60;4.80;;;;;;;17.92;77.92;101332.06;106229;1261;97956;-87
2023/08/12 06:58:55;;;;;;;10.30;4.00;;;;;;;18.04;77.32;101335.95;106105;1261;97906;-87
2023/08/12 07:01:41;;;;;;;12.20;4.70;;;;;;;18.14;76.77;101332.92;106233;1260;102189;-88
2023/08/12 07:04:27;;;;;;;10.30;3.80;;;;;;;18.24;76.80;101324.39;106137;1267;100353;-86
2023/08/12 07:07:13;;;;;;;9.00;4.00;;;;;;;18.35;76.03;101317.09;106218;1260;99062;-86
2023/08/12 07:09:58;;;;;;;7.50;3.50;;;;;;;18.49;75.73;101315.94;106232;1260;98082;-86
2023/08/12 07:12:44;;;;;;;5.80;3.40;;;;;;;18.62;75.03;101317.20;106210;1261;99548;-87
2023/08/12 07:15:30;;;;;;;11.40;3.40;;;;;;;18.74;74.65;101315.97;106064;1264;101428;-87
2023/08/12 07:18:16;;;;;;;6.90;3.80;;;;;;;18.83;74.17;101315.60;106058;1262;99201;-87
2023/08/12 07:21:02;;;;;;;10.50;4.30;;;;;;;18.93;73.68;101315.58;105873;1264;98067;-87
2023/08/12 07:23:48;;;;;;;6.10;3.50;;;;;;;19.05;73.27;101314.88;106135;1260;98019;-86
2023/08/12 07:26:34;;;;;;;7.70;3.50;;;;;;;19.17;72.93;101311.24;106262;1263;98405;-86
2023/08/12 07:29:21;;;;;;;7.20;3.30;;;;;;;19.29;72.85;101308.81;106137;1264;101440;-87
2023/08/12 07:32:07;;;;;;;7.60;3.60;;;;;;;19.38;73.21;101308.34;105963;1260;100447;-87
2023/08/12 07:34:53;;;;;;;4.60;3.00;;;;;;;19.49;72.58;101308.64;106188;1262;97993;-87
2023/08/12 07:37:39;;;;;;;6.70;3.10;;;;;;;19.61;71.58;101309.02;106338;1264;97858;-87
2023/08/12 07:40:24;;;;;;;8.80;3.00;;;;;;;19.72;70.78;101314.23;106194;1260;97754;-88
2023/08/12 07:43:10;;;;;;;5.30;2.90;;;;;;;19.83;71.09;101310.37;106129;1266;102596;-87
2023/08/12 07:45:56;;;;;;;7.40;3.40;;;;;;;19.94;71.09;101309.31;106176;1259;99410;-87
2023/08/12 07:48:42;;;;;;;6.70;3.30;;;;;;;20.04;70.98;101310.40;106320;1259;98003;-87
2023/08/12 07:51:28;;;;;;;6.70;3.80;;;;;;;20.14;70.25;101309.79;106096;1261;98028;-87
2023/08/12 07:54:14;;;;;;;8.00;3.30;;;;;;;20.23;69.85;101307.33;105986;1265;99485;-86
2023/08/12 07:57:00;;;;;;;6.60;3.00;;;;;;;20.31;68.08;101303.73;106079;1259;101447;-85
2023/08/12 07:59:46;;;;;;;5.80;2.50;;;;;;;20.40;67.41;101307.65;106027;1261;100222;-87
2023/08/12 08:02:32;;;;;;;6.40;2.70;;;;;;;20.50;66.83;101302.26;106367;1259;98530;-86
2023/08/12 08:05:17;;;;;;;8.50;2.80;;;;;;;20.60;66.40;101294.39;106215;1261;99329;-86
2023/08/12 08:08:03;;;;;;;9.20;2.60;;;;;;;20.69;65.78;101287.98;106149;1260;97931;-88
2023/08/12 08:10:49;;;;;;;7.30;3.00;;;;;;;20.79;65.03;101283.73;106131;1259;102667;-86
2023/08/12 08:13:35;;;;;;;3.90;2.50;;;;;;;20.86;63.61;101278.83;106206;1259;100420;-87
2023/08/12 08:16:21;;;;;;;5.60;2.20;;;;;;;20.93;62.49;101278.88;106197;1266;97987;-87
2023/08/12 08:19:09;;;;;;;3.90;2.60;;;;;;;21.00;62.28;101277.36;106131;1260;97991;-85
2023/08/12 08:21:55;;;;;;;5.20;2.80;;;;;;;21.11;62.63;101275.21;106440;1263;98291;-87
2023/08/12 08:24:42;;;;;;;6.30;2.50;;;;;;;21.19;60.91;101277.14;106144;1260;103227;-88
2023/08/12 08:27:28;;;;;;;5.10;2.50;;;;;;;21.27;60.07;101274.55;106223;1264;99146;-85
2023/08/12 08:30:13;;;;;;;3.50;2.00;;;;;;;21.36;59.04;101276.20;106474;1259;97929;-86
2023/08/12 08:32:59;;;;;;;5.70;2.40;;;;;;;21.46;58.75;101276.73;106110;1262;97965;-86
2023/08/12 08:35:45;;;;;;;5.50;1.80;;;;;;;21.56;57.98;101276.28;106199;1260;99586;-85
2023/08/12 08:38:31;;;;;;;10.90;2.20;;;;;;;21.63;56.67;101276.90;106146;1260;102955;-85
2023/08/12 08:41:17;;;;;;;4.40;2.00;;;;;;;21.69;56.06;101278.48;106177;1260;99127;-86
2023/08/12 08:44:07;;;;;;;6.90;2.30;;;;;;;21.76;56.08;101274.48;106052;1259;97995;-88
2023/08/12 08:46:54;;;;;;;4.10;1.90;;;;;;;21.83;56.04;101270.23;106342;1259;97863;-87
2023/08/12 08:49:41;;;;;;;6.20;2.00;;;;;;;21.89;55.91;101273.78;106131;1259;95932;-87
2023/08/12 08:52:28;;;;;;;3.30;1.80;;;;;;;21.95;55.41;101270.57;106068;1265;101987;-85
2023/08/12 08:55:14;;;;;;;4.80;2.20;;;;;;;22.02;54.19;101270.42;106068;1259;101037;-88
2023/08/12 08:58:00;;;;;;;4.20;1.70;;;;;;;22.08;53.83;101264.15;106161;1264;99191;-86
2023/08/12 09:00:47;;;;;;;5.00;1.90;;;;;;;22.15;53.36;101260.58;106021;1267;97968;-85
2023/08/12 09:03:37;;;;;;;7.80;1.90;;;;;;;22.23;53.22;101253.98;106036;1260;96988;-87
2023/08/12 09:06:28;;;;;;;6.00;2.50;;;;;;;22.31;53.52;101253.58;106119;1259;101405;-87
2023/08/12 09:09:21;;;;;;;5.60;2.10;;;;;;;22.38;52.28;101253.58;105913;1259;99188;-85
2023/08/12 09:12:08;;;;;;;4.80;1.90;;;;;;;22.44;52.05;101254.39;105943;1268;99038;-86
2023/08/12 09:14:54;;;;;;;7.40;1.80;;;;;;;22.52;52.24;101256.03;105932;1260;97973;-87
2023/08/12 09:17:39;;;;;;;5.00;2.10;;;;;;;22.61;51.81;101251.61;105936;1265;97956;-87
2023/08/12 09:20:26;;;;;;;5.70;1.80;;;;;;;22.70;52.11;101250.95;105964;1264;101384;-86
2023/08/12 09:23:12;;;;;;;4.30;1.70;;;;;;;22.77;50.96;101252.27;105926;1260;99239;-85
2023/08/12 09:26:01;;;;;;;7.90;2.00;;;;;;;22.79;50.33;101248.63;105935;1265;98118;-86
2023/08/12 09:28:48;;;;;;;4.10;1.70;;;;;;;22.82;50.06;101245.44;105876;1260;98133;-85
2023/08/12 09:31:33;;;;;;;4.90;1.80;;;;;;;22.85;50.38;101240.84;106122;1264;98405;-84
2023/08/12 09:34:19;;;;;;;4.70;1.60;;;;;;;22.92;50.71;101235.52;106026;1259;101417;-86
2023/08/12 09:37:06;;;;;;;4.80;1.90;;;;;;;22.98;50.17;101235.61;106002;1259;99118;-85
2023/08/12 09:39:52;;;;;;;4.60;1.80;;;;;;;23.06;49.84;101235.61;105936;1260;99084;-85
2023/08/12 09:42:45;;;;;;;5.20;1.90;;;;;;;23.14;49.76;101231.61;105999;1260;98539;-85
2023/08/12 09:45:33;;;;;;;5.90;2.50;;;;;;;23.19;49.32;101225.02;106163;1259;97950;-85
2023/08/12 09:48:20;;;;;;;5.30;1.70;;;;;;;23.22;49.52;101224.16;106176;1260;101328;-85
2023/08/12 09:51:08;;;;;;;4.30;1.70;;;;;;;23.26;49.64;101224.71;105900;1262;101032;-86
2023/08/12 09:53:54;;;;;;;3.30;1.80;;;;;;;23.35;48.90;101223.42;105930;1259;97961;-86
2023/08/12 09:56:40;;;;;;;2.80;1.50;;;;;;;23.38;48.65;101215.60;105834;1260;98085;-86
2023/08/12 09:59:35;;;;;;;4.20;2.10;;;;;;;23.39;47.99;101211.83;106084;1260;98453;-86
2023/08/12 10:02:21;;;;;;;5.20;1.90;;;;;;;23.40;48.01;101208.02;105872;1260;102726;-87
2023/08/12 10:05:11;;;;;;;5.60;1.90;;;;;;;23.45;49.10;101203.58;106095;1259;99346;-86
2023/08/12 10:07:58;;;;;;;5.80;1.90;;;;;;;23.52;48.76;101199.89;105977;1260;98136;-85
2023/08/12 10:10:44;;;;;;;2.90;1.60;;;;;;;23.58;48.77;101197.92;106074;1260;98610;-85
2023/08/12 10:13:30;;;;;;;3.60;1.50;;;;;;;23.62;48.08;101194.69;106021;1259;98438;-86
2023/08/12 10:16:17;;;;;;;4.60;1.30;;;;;;;23.68;48.52;101192.67;105956;1260;101417;-87
2023/08/12 10:19:05;;;;;;;3.60;1.90;;;;;;;23.75;47.78;101189.13;105990;1259;100977;-86
2023/08/12 10:21:55;;;;;;;4.70;1.40;;;;;;;23.78;47.55;101180.84;106023;1268;99107;-86
2023/08/12 10:24:46;;;;;;;5.10;1.70;;;;;;;23.82;46.94;101181.04;106036;1260;97989;-87
2023/08/12 10:27:31;;;;;;;5.30;1.70;;;;;;;23.84;47.01;101177.16;106222;1264;97784;-87
2023/08/12 10:30:17;;;;;;;2.70;1.50;;;;;;;23.92;46.94;101174.61;106290;1259;101439;-86
2023/08/12 10:33:04;;;;;;;5.70;2.60;;;;;;;24.02;46.95;101175.64;105985;1267;99174;-86
2023/08/12 10:35:49;;;;;;;4.40;1.90;;;;;;;24.11;46.85;101177.09;106066;1264;97876;-87
2023/08/12 10:38:35;;;;;;;5.20;1.50;;;;;;;24.17;46.78;101177.59;106015;1267;97803;-85
2023/08/12 10:41:23;;;;;;;2.30;1.50;;;;;;;24.23;46.75;101179.54;106019;1260;98462;-85
2023/08/12 10:44:09;;;;;;;4.80;1.60;;;;;;;24.26;45.80;101175.95;106041;1259;102080;-86
2023/08/12 10:46:55;;;;;;;3.30;1.40;;;;;;;24.27;45.84;101169.55;106145;1259;100426;-87
2023/08/12 10:49:48;;;;;;;4.50;1.60;;;;;;;24.28;46.23;101172.03;106100;1265;99081;-86
2023/08/12 10:52:34;;;;;;;3.40;1.60;;;;;;;24.32;46.61;101172.62;106036;1260;97830;-86
2023/08/12 10:55:27;;;;;;;3.50;1.40;;;;;;;24.39;45.74;101166.46;106162;1262;99625;-87
2023/08/12 10:58:25;;;;;;;4.80;2.50;;;;;;;24.42;45.82;101161.34;106089;1261;101420;-86
2023/08/12 11:01:16;;;;;;;3.50;1.50;;;;;;;24.48;46.18;101165.97;105849;1259;109343;-86
2023/08/12 11:04:17;;;;;;;5.70;1.90;;;;;;;24.54;45.81;101163.38;105979;1261;98490;-86
2023/08/12 11:07:15;;;;;;;3.50;1.50;;;;;;;24.60;46.05;101162.33;106063;1265;97893;-87
2023/08/12 11:10:12;;;;;;;7.80;2.60;;;;;;;24.66;46.45;101153.85;106034;1261;96579;-86
2023/08/12 11:12:59;;;;;;;11.40;4.10;;;;;;;24.70;45.87;101152.56;105984;1264;102801;-87
2023/08/12 11:15:47;;;;;;;5.10;2.80;;;;;;;24.73;45.60;101152.09;106019;1259;99257;-85
2023/08/12 11:18:34;;;;;;;6.80;2.10;;;;;;;24.74;45.70;101152.38;105894;1261;100248;-85
2023/08/12 11:21:21;;;;;;;6.10;2.20;;;;;;;24.77;45.87;101150.44;105854;1267;98012;-86
2023/08/12 11:24:10;;;;;;;6.00;1.70;;;;;;;24.81;45.59;101151.51;106267;1259;98481;-85
2023/08/12 11:27:00;;;;;;;2.60;1.60;;;;;;;24.83;44.64;101147.89;106051;1259;102322;-86
2023/08/12 11:29:45;;;;;;;4.20;1.80;;;;;;;24.86;45.33;101142.82;105879;1259;100084;-85
2023/08/12 11:32:32;;;;;;;4.60;1.90;;;;;;;24.93;45.74;101136.77;105776;1259;98831;-86
2023/08/12 11:35:20;;;;;;;4.20;2.10;;;;;;;25.05;46.12;101137.77;105974;1259;97922;-84
2023/08/12 11:38:07;;;;;;;3.10;1.90;;;;;;;25.15;46.16;101136.00;105998;1259;98435;-85
2023/08/12 11:40:53;;;;;;;2.30;1.30;;;;;;;25.21;45.89;101132.18;105883;1259;103776;-86
2023/08/12 11:43:39;;;;;;;3.90;1.70;;;;;;;25.27;45.69;101129.34;105981;1259;99168;-86
2023/08/12 11:46:25;;;;;;;3.50;1.30;;;;;;;25.36;45.51;101126.45;105923;1262;98759;-86
2023/08/12 11:49:11;;;;;;;2.00;1.30;;;;;;;25.42;44.96;101118.77;106126;1259;97971;-86
2023/08/12 11:51:57;;;;;;;2.40;1.20;;;;;;;25.43;44.00;101115.15;105809;1259;98052;-85
2023/08/12 11:54:43;;;;;;;3.60;1.70;;;;;;;25.45;44.54;101114.23;105880;1266;101471;-85
2023/08/12 11:57:34;;;;;;;3.60;1.70;;;;;;;25.53;45.03;101113.73;106042;1265;100315;-86
2023/08/12 12:00:20;;;;;;;6.90;1.50;;;;;;;25.60;44.55;101111.10;105973;1260;99014;-85
2023/08/12 12:03:06;;;;;;;2.60;1.80;;;;;;;25.64;44.05;101104.19;105896;1265;98376;-85
2023/08/12 12:05:56;;;;;;;5.40;1.40;;;;;;;25.66;43.89;101102.81;105846;1260;97976;-86
2023/08/12 12:08:44;;;;;;;5.10;1.40;;;;;;;25.73;44.50;101100.52;105849;1259;101532;-85
2023/08/12 12:11:29;;;;;;;3.90;1.50;;;;;;;25.81;44.37;101098.36;105700;1263;99187;-84
2023/08/12 12:14:15;;;;;;;4.20;1.50;;;;;;;25.90;44.35;101098.30;105814;1262;99045;-85
2023/08/12 12:17:08;;;;;;;4.00;1.70;;;;;;;25.95;43.67;101097.42;105795;1262;97940;-86
2023/08/12 12:19:59;;;;;;;5.50;1.60;;;;;;;25.97;43.11;101096.77;105693;1265;97844;-85
2023/08/12 12:22:47;;;;;;;9.20;1.60;;;;;;;26.00;42.35;101096.98;105836;1259;101434;-86
2023/08/12 12:25:33;;;;;;;6.90;2.00;;;;;;;25.96;41.64;101091.66;105886;1259;101013;-86
2023/08/12 12:28:18;;;;;;;4.20;1.80;;;;;;;25.90;41.22;101088.87;105833;1261;98049;-85
2023/08/12 12:31:04;;;;;;;3.60;1.50;;;;;;;25.87;41.45;101086.13;105936;1259;97984;-86
2023/08/12 12:33:49;;;;;;;8.30;1.70;;;;;;;25.90;42.00;101080.19;105744;1259;97989;-84
2023/08/12 12:36:36;;;;;;;3.60;1.40;;;;;;;25.93;42.21;101081.62;105849;1259;101395;-84
2023/08/12 12:39:25;;;;;;;5.10;1.50;;;;;;;25.96;42.20;101073.05;105887;1261;99243;-84
2023/08/12 12:42:11;;;;;;;7.00;1.20;;;;;;;25.99;42.24;101068.38;105693;1265;98863;-85
2023/08/12 12:44:59;;;;;;;2.60;1.20;;;;;;;26.05;42.18;101072.27;105679;1259;98541;-85